JST504 YMML-YSSY
Flight info
| Callsign | JST504 |
|---|---|
| Flight time | N/A |
| Altitude | 35000 |
| Route | ML H129 DOSEL Y59 RIVET |
| Aircraft | A21N/M-SDE2E3FGHIRWXY/LB1 |
Departure
| Time | 2026-05-05 07:00 |
|---|---|
| Airport | Melbourne Airport (YMML) |
Arrival
| Time | N/A |
|---|---|
| Airport | Sydney Kingsford Smith International Airport (YSSY) |
| Time | Latitude | Longitude | Altitude | Speed | Heading |
|---|---|---|---|---|---|
| 2026-05-05 07:00 | -37.61144 | 144.64175 | 8759 ft | 286 kts | 335° |
| 2026-05-05 07:00 | -37.59253 | 144.63311 | 9561 ft | 291 kts | 338° |
| 2026-05-05 07:00 | -37.57290 | 144.62578 | 10287 ft | 301 kts | 347° |
| 2026-05-05 07:00 | -37.55114 | 144.62644 | 10586 ft | 328 kts | 13° |
| 2026-05-05 07:01 | -37.52984 | 144.63881 | 10896 ft | 351 kts | 36° |
| 2026-05-05 07:01 | -37.51184 | 144.66063 | 11258 ft | 368 kts | 49° |
| 2026-05-05 07:01 | -37.49566 | 144.68640 | 11662 ft | 383 kts | 55° |
| 2026-05-05 07:01 | -37.48059 | 144.71484 | 12097 ft | 397 kts | 58° |
| 2026-05-05 07:02 | -37.46602 | 144.74462 | 12796 ft | 401 kts | 59° |
| 2026-05-05 07:02 | -37.45171 | 144.77501 | 13534 ft | 405 kts | 60° |
| 2026-05-05 07:02 | -37.43747 | 144.80578 | 14209 ft | 410 kts | 60° |
| 2026-05-05 07:02 | -37.42317 | 144.83697 | 14868 ft | 412 kts | 61° |
| 2026-05-05 07:03 | -37.40884 | 144.86832 | 15510 ft | 415 kts | 61° |
| 2026-05-05 07:03 | -37.39440 | 144.89993 | 16162 ft | 418 kts | 61° |
| 2026-05-05 07:03 | -37.37985 | 144.93177 | 16797 ft | 421 kts | 61° |
| 2026-05-05 07:03 | -37.36520 | 144.96376 | 17427 ft | 424 kts | 61° |
| 2026-05-05 07:04 | -37.35042 | 144.99597 | 18034 ft | 427 kts | 60° |
| 2026-05-05 07:04 | -37.33551 | 145.02841 | 18632 ft | 430 kts | 60° |
| 2026-05-05 07:04 | -37.32047 | 145.06104 | 19143 ft | 433 kts | 60° |
| 2026-05-05 07:04 | -37.30531 | 145.09387 | 19643 ft | 437 kts | 60° |
| 2026-05-05 07:05 | -37.28998 | 145.12699 | 20132 ft | 440 kts | 60° |
| 2026-05-05 07:05 | -37.27453 | 145.16034 | 20626 ft | 444 kts | 60° |
| 2026-05-05 07:05 | -37.25898 | 145.19388 | 21106 ft | 446 kts | 60° |
| 2026-05-05 07:05 | -37.24327 | 145.22767 | 21574 ft | 450 kts | 60° |
| 2026-05-05 07:06 | -37.22764 | 145.26128 | 22054 ft | 453 kts | 60° |
| 2026-05-05 07:06 | -37.21147 | 145.29600 | 22537 ft | 456 kts | 60° |
| 2026-05-05 07:06 | -37.19560 | 145.33002 | 22981 ft | 460 kts | 60° |
| 2026-05-05 07:06 | -37.17915 | 145.36453 | 23423 ft | 463 kts | 59° |
| 2026-05-05 07:07 | -37.16141 | 145.39845 | 23856 ft | 467 kts | 57° |
| 2026-05-05 07:07 | -37.14298 | 145.43210 | 24232 ft | 470 kts | 56° |
| 2026-05-05 07:07 | -37.12420 | 145.46568 | 24622 ft | 473 kts | 56° |
| 2026-05-05 07:07 | -37.66827 | 144.84340 | 393 ft | 0 kts | 81° |